createdAt,value
2019-03-23T00:00:24.976Z,77.70
2019-03-23T00:02:54.852Z,77.60
2019-03-23T00:05:24.704Z,77.30
2019-03-23T00:07:54.489Z,77.30
2019-03-23T00:10:24.223Z,77.00
2019-03-23T00:12:53.964Z,76.60
2019-03-23T00:15:23.852Z,76.60
2019-03-23T00:17:53.604Z,76.30
2019-03-23T00:20:23.424Z,76.50
2019-03-23T00:22:53.163Z,76.40
2019-03-23T00:25:22.903Z,76.50
2019-03-23T00:27:52.668Z,76.20
2019-03-23T00:30:22.434Z,76.50
2019-03-23T00:32:52.181Z,76.50
2019-03-23T00:35:21.918Z,76.50
2019-03-23T00:37:51.657Z,76.30
2019-03-23T00:40:21.535Z,76.20
2019-03-23T00:42:51.258Z,76.00
2019-03-23T00:45:21.079Z,76.10
2019-03-23T00:47:50.776Z,75.90
2019-03-23T00:50:20.523Z,75.90
2019-03-23T00:52:51.320Z,75.90
2019-03-23T00:55:21.053Z,76.10
2019-03-23T00:57:50.794Z,76.50
2019-03-23T01:00:20.657Z,76.80
2019-03-23T01:02:50.467Z,76.60
2019-03-23T01:05:20.238Z,76.60
2019-03-23T01:07:49.974Z,76.90
2019-03-23T01:10:19.761Z,76.50
2019-03-23T01:12:49.498Z,76.70
2019-03-23T01:15:19.285Z,76.70
2019-03-23T01:17:49.128Z,76.90
2019-03-23T01:20:18.814Z,77.00
2019-03-23T01:22:48.628Z,77.10
2019-03-23T01:25:18.437Z,77.10
2019-03-23T01:27:48.237Z,76.80
2019-03-23T01:30:19.473Z,77.00
2019-03-23T01:32:49.279Z,77.30
2019-03-23T01:35:19.085Z,77.40
2019-03-23T01:37:48.986Z,77.40
2019-03-23T01:40:18.730Z,77.60
2019-03-23T01:42:48.471Z,77.50
2019-03-23T01:45:18.314Z,77.70
2019-03-23T01:47:48.118Z,77.70
2019-03-23T01:50:17.925Z,77.60
2019-03-23T01:52:47.624Z,77.70
2019-03-23T01:55:17.437Z,77.70
2019-03-23T01:57:47.270Z,77.80
2019-03-23T02:00:17.075Z,77.80
2019-03-23T02:02:47.638Z,77.70
2019-03-23T02:05:17.563Z,77.60
2019-03-23T02:07:47.385Z,77.50
2019-03-23T02:10:17.257Z,77.40
2019-03-23T02:12:47.013Z,77.30
2019-03-23T02:15:16.943Z,77.20
2019-03-23T02:17:46.701Z,77.00
2019-03-23T02:20:16.440Z,76.90
2019-03-23T02:22:46.213Z,76.80
2019-03-23T02:25:16.047Z,76.90
2019-03-23T02:27:45.801Z,76.80
2019-03-23T02:30:15.609Z,76.90
2019-03-23T02:32:45.373Z,77.20
2019-03-23T02:35:15.313Z,77.30
2019-03-23T02:37:45.125Z,77.10
2019-03-23T02:40:14.937Z,76.90
2019-03-23T02:42:44.631Z,76.60
2019-03-23T02:45:15.300Z,76.50
2019-03-23T02:47:45.099Z,76.20
2019-03-23T02:50:14.907Z,76.00
2019-03-23T02:52:44.654Z,75.60
2019-03-23T02:55:14.448Z,76.00
2019-03-23T02:57:44.266Z,76.40
2019-03-23T03:00:15.861Z,76.40
2019-03-23T03:02:45.710Z,76.30
2019-03-23T03:05:15.528Z,76.40
2019-03-23T03:07:45.325Z,76.50
2019-03-23T03:10:35.761Z,76.50
2019-03-23T03:13:05.508Z,76.30
2019-03-23T03:15:35.323Z,76.10
2019-03-23T03:18:06.425Z,76.00
2019-03-23T03:20:36.240Z,76.00
2019-03-23T03:23:05.970Z,76.00
2019-03-23T03:25:35.750Z,76.00
2019-03-23T03:28:05.701Z,76.20
2019-03-23T03:30:35.520Z,76.30
2019-03-23T03:33:05.228Z,76.30
2019-03-23T03:35:35.082Z,76.20
2019-03-23T03:38:04.840Z,76.10
2019-03-23T03:40:34.631Z,76.00
2019-03-23T03:43:04.460Z,75.80
2019-03-23T03:45:34.210Z,75.80
2019-03-23T03:48:04.022Z,75.60
2019-03-23T03:50:33.721Z,75.50
2019-03-23T03:53:03.529Z,75.50
2019-03-23T03:55:33.358Z,75.40
2019-03-23T03:58:03.244Z,75.50
2019-03-23T04:00:32.992Z,75.40
2019-03-23T04:03:02.871Z,75.50
2019-03-23T04:05:32.656Z,75.40
2019-03-23T04:08:10.919Z,75.40
2019-03-23T04:10:33.862Z,75.30
2019-03-23T04:13:04.615Z,75.30
2019-03-23T04:15:34.464Z,75.20
2019-03-23T04:18:04.417Z,75.40
2019-03-23T04:20:34.204Z,75.40
2019-03-23T04:23:03.961Z,76.20
2019-03-23T04:25:33.581Z,76.30
2019-03-23T04:28:03.339Z,75.50
2019-03-23T04:30:33.079Z,75.50
2019-03-23T04:33:03.243Z,75.40
2019-03-23T04:35:33.094Z,75.30
2019-03-23T04:38:02.897Z,75.30
2019-03-23T04:40:32.624Z,75.40
2019-03-23T04:43:02.973Z,75.40
2019-03-23T04:45:32.785Z,75.60
2019-03-23T04:48:02.522Z,75.80
2019-03-23T04:50:32.325Z,75.80
2019-03-23T04:53:02.126Z,76.00
2019-03-23T04:55:31.875Z,76.30
2019-03-23T04:58:01.631Z,76.20
2019-03-23T05:00:31.440Z,76.60
2019-03-23T05:03:01.271Z,76.60
2019-03-23T05:05:31.083Z,76.50
2019-03-23T05:08:00.801Z,76.60
2019-03-23T05:10:30.524Z,76.80
2019-03-23T05:13:00.372Z,76.60
2019-03-23T05:15:30.144Z,76.80
2019-03-23T05:18:00.946Z,76.90
2019-03-23T05:20:32.168Z,77.10
2019-03-23T05:23:02.947Z,77.30
2019-03-23T05:25:32.707Z,77.60
2019-03-23T05:28:02.439Z,77.80
2019-03-23T05:30:32.249Z,77.80
2019-03-23T05:33:01.936Z,77.90
2019-03-23T05:35:31.789Z,78.00
2019-03-23T05:38:02.543Z,78.10
2019-03-23T05:40:32.380Z,78.00
2019-03-23T05:43:02.213Z,78.00
2019-03-23T05:45:32.032Z,78.10
2019-03-23T05:48:01.924Z,78.30
2019-03-23T05:50:31.658Z,78.40
2019-03-23T05:53:01.409Z,78.40
2019-03-23T05:55:31.392Z,78.70
2019-03-23T05:58:01.215Z,78.70
2019-03-23T06:00:30.971Z,78.90
2019-03-23T06:03:00.835Z,78.70
2019-03-23T06:05:30.729Z,78.60
2019-03-23T06:08:00.419Z,78.70
2019-03-23T06:10:30.158Z,78.70
2019-03-23T06:12:59.914Z,78.80
2019-03-23T06:15:29.733Z,78.80
2019-03-23T06:17:59.561Z,78.90
2019-03-23T06:20:29.379Z,78.90
2019-03-23T06:22:59.063Z,79.80
2019-03-23T06:25:28.954Z,78.80
2019-03-23T06:27:58.712Z,79.00
2019-03-23T06:30:28.459Z,78.80
2019-03-23T06:32:59.405Z,78.80
2019-03-23T06:35:29.355Z,78.80
2019-03-23T06:37:59.168Z,78.90
2019-03-23T06:40:30.048Z,79.00
2019-03-23T06:43:00.153Z,78.90
2019-03-23T06:45:30.100Z,79.00
2019-03-23T06:47:59.840Z,79.00
2019-03-23T06:50:29.650Z,79.40
2019-03-23T06:52:59.448Z,79.70
2019-03-23T06:55:29.135Z,79.70
2019-03-23T06:57:58.972Z,79.80
2019-03-23T07:00:28.687Z,80.10
2019-03-23T07:02:58.420Z,80.10
2019-03-23T07:05:28.249Z,80.10
2019-03-23T07:07:59.149Z,80.30
2019-03-23T07:10:28.977Z,80.30
2019-03-23T07:12:58.868Z,80.60
2019-03-23T07:15:28.567Z,79.90
2019-03-23T07:17:58.387Z,80.10
2019-03-23T07:20:28.547Z,80.40
2019-03-23T07:22:58.285Z,80.40
2019-03-23T07:25:27.981Z,80.60
2019-03-23T07:27:57.806Z,80.70
2019-03-23T07:30:27.595Z,80.90
2019-03-23T07:32:57.326Z,81.00
2019-03-23T07:35:27.070Z,81.10
2019-03-23T07:37:56.899Z,81.20
2019-03-23T07:40:26.592Z,81.10
2019-03-23T07:42:56.404Z,81.10
2019-03-23T07:45:26.226Z,81.30
2019-03-23T07:47:56.020Z,81.40
2019-03-23T07:50:25.830Z,81.30
2019-03-23T07:52:55.703Z,81.10
2019-03-23T08:01:39.987Z,82.10
2019-03-23T08:04:09.889Z,84.80
2019-03-23T08:06:39.623Z,81.90
2019-03-23T08:09:19.765Z,76.10
2019-03-23T08:11:40.923Z,71.40
2019-03-23T08:14:10.914Z,66.80
2019-03-23T08:16:40.867Z,63.60
2019-03-23T08:19:10.664Z,61.00
2019-03-23T08:21:40.417Z,59.20
2019-03-23T08:24:10.282Z,58.20
2019-03-23T08:26:40.010Z,57.20
2019-03-23T08:29:10.019Z,56.70
2019-03-23T08:31:40.996Z,56.50
2019-03-23T08:34:10.949Z,56.60
2019-03-23T08:36:40.802Z,55.60
2019-03-23T08:39:10.757Z,55.00
2019-03-23T08:41:40.709Z,54.20
2019-03-23T08:44:10.661Z,53.90
2019-03-23T08:46:40.515Z,53.50
2019-03-23T08:49:11.490Z,53.20
2019-03-23T08:51:42.468Z,53.20
2019-03-23T08:54:12.264Z,53.10
2019-03-23T08:56:42.070Z,52.90
2019-03-23T08:59:12.023Z,53.00
2019-03-23T09:01:41.742Z,52.80
2019-03-23T09:04:11.471Z,53.00
2019-03-23T09:06:41.473Z,52.90
2019-03-23T09:09:11.426Z,53.80
2019-03-23T09:11:41.383Z,53.10
2019-03-23T09:14:11.231Z,52.90
2019-03-23T09:16:41.092Z,52.90
2019-03-23T09:19:11.038Z,52.80
2019-03-23T09:21:40.993Z,52.90
2019-03-23T09:24:10.718Z,52.90
2019-03-23T09:26:40.591Z,52.80
2019-03-23T09:29:10.544Z,52.70
2019-03-23T09:31:40.499Z,52.60
2019-03-23T09:34:10.452Z,52.70
2019-03-23T09:36:41.359Z,53.10
2019-03-23T09:39:11.384Z,53.00
2019-03-23T09:41:41.337Z,53.00
2019-03-23T09:44:12.109Z,52.90
2019-03-23T09:46:42.062Z,52.80
2019-03-23T09:49:11.792Z,53.00
2019-03-23T09:51:41.616Z,53.10
2019-03-23T09:54:11.513Z,52.80
2019-03-23T09:56:42.183Z,52.70
2019-03-23T09:59:12.139Z,52.60
2019-03-23T10:01:42.091Z,52.50
2019-03-23T10:04:12.046Z,52.80
2019-03-23T10:06:41.999Z,52.00
2019-03-23T10:09:11.954Z,52.00
2019-03-23T10:11:41.906Z,52.20
2019-03-23T10:14:11.860Z,52.40
2019-03-23T10:16:41.636Z,52.80
2019-03-23T10:19:11.463Z,52.70
2019-03-23T10:21:41.287Z,52.70
2019-03-23T10:24:11.049Z,52.00
2019-03-23T10:26:40.958Z,52.00
2019-03-23T10:29:10.634Z,51.80
2019-03-23T10:31:40.519Z,51.50
2019-03-23T10:34:10.267Z,51.50
2019-03-23T10:36:40.896Z,51.30
2019-03-23T10:39:11.441Z,51.10
2019-03-23T10:41:41.305Z,50.90
2019-03-23T10:44:11.089Z,50.90
2019-03-23T10:46:40.831Z,50.80
2019-03-23T10:49:10.532Z,51.00
2019-03-23T10:51:40.550Z,51.30
2019-03-23T10:54:10.503Z,51.40
2019-03-23T10:56:40.665Z,51.20
2019-03-23T10:59:10.515Z,51.20
2019-03-23T11:01:40.467Z,51.00
2019-03-23T11:04:10.411Z,51.20
2019-03-23T11:06:40.375Z,51.10
2019-03-23T11:09:10.250Z,50.60
2019-03-23T11:11:40.178Z,50.70
2019-03-23T11:14:10.135Z,50.10
2019-03-23T11:16:39.956Z,49.80
2019-03-23T11:19:13.652Z,49.80
2019-03-23T11:21:41.144Z,50.00
2019-03-23T11:24:10.944Z,50.00
2019-03-23T11:26:40.714Z,50.00
2019-03-23T11:29:10.460Z,50.10
2019-03-23T11:31:40.132Z,50.20
2019-03-23T11:34:17.584Z,50.30
2019-03-23T11:36:41.332Z,50.80
2019-03-23T11:39:12.308Z,50.20
2019-03-23T11:41:42.012Z,50.70
2019-03-23T11:44:11.727Z,50.20
2019-03-23T11:46:41.517Z,50.40
2019-03-23T11:49:11.266Z,50.50
2019-03-23T11:51:41.092Z,50.60
2019-03-23T11:54:10.815Z,51.20
2019-03-23T11:56:40.662Z,51.80
2019-03-23T11:59:10.433Z,52.40
2019-03-23T12:01:40.284Z,52.60
2019-03-23T12:04:10.167Z,52.60
2019-03-23T12:06:40.045Z,53.00
2019-03-23T12:09:09.948Z,53.30
2019-03-23T12:11:39.738Z,53.40
2019-03-23T12:14:09.504Z,53.30
2019-03-23T12:16:39.372Z,53.00
2019-03-23T12:19:09.130Z,53.20
2019-03-23T12:21:38.859Z,53.30
2019-03-23T12:24:08.612Z,53.20
2019-03-23T12:26:38.424Z,53.30
2019-03-23T12:29:08.329Z,53.40
2019-03-23T12:31:38.082Z,53.40
2019-03-23T12:34:07.893Z,53.30
2019-03-23T12:36:37.929Z,53.20
2019-03-23T12:39:07.845Z,53.20
2019-03-23T12:41:37.585Z,53.00
2019-03-23T12:44:07.336Z,52.90
2019-03-23T12:46:47.696Z,52.80
2019-03-23T12:49:08.516Z,52.70
2019-03-23T12:51:38.213Z,52.70
2019-03-23T12:54:08.027Z,52.50
2019-03-23T12:56:37.823Z,52.50
2019-03-23T12:59:07.680Z,52.70
2019-03-23T13:01:37.421Z,52.80
2019-03-23T13:04:07.235Z,52.80
2019-03-23T13:06:37.091Z,52.80
2019-03-23T13:09:07.822Z,52.70
2019-03-23T13:11:37.579Z,52.70
2019-03-23T13:14:07.271Z,53.10
2019-03-23T13:16:37.108Z,52.50
2019-03-23T13:19:06.893Z,52.20
2019-03-23T13:21:36.689Z,52.00
2019-03-23T13:24:06.445Z,51.70
2019-03-23T13:26:36.196Z,51.60
2019-03-23T13:29:05.944Z,51.40
2019-03-23T13:31:35.644Z,51.40
2019-03-23T13:34:05.392Z,51.40
2019-03-23T13:36:36.079Z,51.70
2019-03-23T13:39:06.613Z,51.60
2019-03-23T13:41:44.652Z,51.50
2019-03-23T13:44:09.340Z,51.40
2019-03-23T13:46:39.142Z,51.30
2019-03-23T13:49:08.944Z,51.20
2019-03-23T13:51:38.628Z,51.20
2019-03-23T13:54:08.461Z,51.10
2019-03-23T13:56:38.149Z,51.00
2019-03-23T13:59:07.967Z,50.90
2019-03-23T14:01:37.748Z,50.80
2019-03-23T14:04:07.550Z,51.00
2019-03-23T14:06:37.483Z,50.80
2019-03-23T14:09:07.499Z,51.30
2019-03-23T14:11:37.284Z,50.60
2019-03-23T14:14:07.309Z,50.40
2019-03-23T14:16:37.027Z,50.10
2019-03-23T14:19:06.971Z,49.90
2019-03-23T14:21:36.773Z,49.80
2019-03-23T14:24:07.677Z,49.50
2019-03-23T14:26:37.419Z,49.20
2019-03-23T14:29:07.152Z,49.00
2019-03-23T14:31:36.914Z,48.90
2019-03-23T14:34:06.720Z,48.80
2019-03-23T14:36:36.465Z,48.30
2019-03-23T14:39:07.242Z,48.50
2019-03-23T14:41:37.043Z,48.40
2019-03-23T14:44:06.848Z,48.40
2019-03-23T14:46:36.592Z,48.20
2019-03-23T14:49:06.395Z,47.80
2019-03-23T14:51:36.207Z,47.60
2019-03-23T14:54:05.922Z,47.30
2019-03-23T14:56:35.812Z,47.20
2019-03-23T14:59:05.680Z,47.20
2019-03-23T15:01:35.562Z,47.10
2019-03-23T15:04:05.303Z,47.00
2019-03-23T15:06:34.984Z,46.90
2019-03-23T15:09:06.533Z,46.70
2019-03-23T15:11:36.254Z,46.70
2019-03-23T15:14:06.044Z,46.60
2019-03-23T15:16:35.811Z,46.30
2019-03-23T15:19:05.764Z,47.00
2019-03-23T15:21:35.515Z,46.20
2019-03-23T15:24:05.244Z,46.20
2019-03-23T15:26:35.004Z,46.20
2019-03-23T15:29:04.828Z,46.20
2019-03-23T15:31:34.703Z,46.20
2019-03-23T15:34:04.386Z,46.20
2019-03-23T15:36:34.148Z,46.10
2019-03-23T15:39:05.432Z,46.00
2019-03-23T15:41:35.332Z,45.90
2019-03-23T15:44:05.075Z,45.60
2019-03-23T15:46:34.875Z,45.70
2019-03-23T15:49:04.624Z,45.40
2019-03-23T15:51:34.470Z,45.30
2019-03-23T15:54:04.223Z,45.10
2019-03-23T15:56:34.009Z,45.10
2019-03-23T15:59:03.691Z,45.00
2019-03-23T16:01:33.569Z,44.80
2019-03-23T16:04:03.365Z,44.80
2019-03-23T16:06:33.111Z,44.70
2019-03-23T16:09:02.842Z,44.50
2019-03-23T16:11:32.592Z,44.40
2019-03-23T16:14:02.392Z,44.40
2019-03-23T16:16:32.125Z,44.50
2019-03-23T16:19:01.807Z,44.50
2019-03-23T16:21:31.553Z,44.30
2019-03-23T16:24:01.438Z,44.50
2019-03-23T16:26:31.249Z,44.50
2019-03-23T16:29:00.984Z,44.30
2019-03-23T16:31:30.759Z,44.10
2019-03-23T16:34:00.661Z,44.10
2019-03-23T16:36:30.552Z,44.00
2019-03-23T16:39:01.245Z,43.90
2019-03-23T16:41:32.056Z,44.10
2019-03-23T16:44:01.793Z,44.20
2019-03-23T16:46:31.860Z,44.30
2019-03-23T16:49:01.606Z,44.20
2019-03-23T16:51:31.389Z,44.30
2019-03-23T16:54:01.139Z,44.20
2019-03-23T16:56:30.980Z,44.10
2019-03-23T16:59:00.850Z,44.30
2019-03-23T17:01:30.756Z,44.30
2019-03-23T17:04:00.552Z,44.30
2019-03-23T17:06:30.245Z,44.50
2019-03-23T17:09:00.132Z,44.30
2019-03-23T17:11:29.967Z,44.10
2019-03-23T17:13:59.740Z,44.00
2019-03-23T17:16:29.540Z,44.00
2019-03-23T17:18:59.311Z,44.10
2019-03-23T17:21:29.185Z,44.00
2019-03-23T17:23:58.873Z,44.10
2019-03-23T17:26:28.644Z,44.00
2019-03-23T17:28:58.464Z,43.70
2019-03-23T17:31:28.194Z,43.60
2019-03-23T17:33:57.942Z,43.40
2019-03-23T17:36:27.751Z,43.30
2019-03-23T17:38:57.504Z,43.30
2019-03-23T17:41:27.239Z,43.20
2019-03-23T17:43:57.070Z,43.20
2019-03-23T17:46:27.824Z,43.20
2019-03-23T17:48:57.682Z,43.20
2019-03-23T17:51:27.537Z,43.20
2019-03-23T17:53:59.023Z,43.20
2019-03-23T17:56:29.128Z,43.10
2019-03-23T17:58:58.936Z,43.20
2019-03-23T18:01:28.812Z,43.10
2019-03-23T18:03:58.665Z,43.10
2019-03-23T18:06:28.434Z,43.10
2019-03-23T18:08:58.227Z,43.20
2019-03-23T18:11:28.008Z,43.10
2019-03-23T18:13:57.763Z,43.10
2019-03-23T18:16:27.553Z,43.00
2019-03-23T18:18:57.231Z,43.00
2019-03-23T18:21:27.027Z,42.80
2019-03-23T18:23:57.828Z,43.00
2019-03-23T18:26:27.640Z,42.90
2019-03-23T18:28:58.544Z,43.00
2019-03-23T18:31:29.188Z,43.10
2019-03-23T18:33:59.069Z,43.00
2019-03-23T18:36:28.755Z,42.90
2019-03-23T18:38:58.477Z,42.90
2019-03-23T18:41:28.796Z,42.90
2019-03-23T18:43:58.481Z,42.80
2019-03-23T18:46:28.482Z,42.70
2019-03-23T18:48:58.236Z,42.70
2019-03-23T18:51:27.977Z,42.70
2019-03-23T18:53:57.807Z,42.80
2019-03-23T18:56:27.615Z,42.70
2019-03-23T18:58:57.352Z,42.80
2019-03-23T19:01:27.119Z,42.80
2019-03-23T19:03:56.804Z,42.90
2019-03-23T19:06:26.660Z,43.10
2019-03-23T19:08:56.540Z,43.20
2019-03-23T19:11:26.943Z,43.30
2019-03-23T19:13:56.736Z,43.50
2019-03-23T19:16:26.560Z,43.50
2019-03-23T19:18:56.313Z,43.40
2019-03-23T19:21:26.195Z,43.40
2019-03-23T19:23:55.992Z,43.30
2019-03-23T19:26:25.733Z,43.30
2019-03-23T19:28:55.542Z,43.20
2019-03-23T19:31:25.408Z,43.20
2019-03-23T19:33:55.221Z,43.00
2019-03-23T19:36:25.112Z,43.10
2019-03-23T19:38:54.985Z,43.10
2019-03-23T19:41:24.812Z,43.20
2019-03-23T19:43:54.595Z,43.20
2019-03-23T19:46:24.456Z,43.10
2019-03-23T19:48:54.209Z,43.10
2019-03-23T19:51:24.018Z,43.00
2019-03-23T19:53:53.704Z,43.00
2019-03-23T19:56:23.448Z,43.20
2019-03-23T19:58:53.196Z,43.20
2019-03-23T20:01:22.913Z,43.20
2019-03-23T20:03:52.699Z,43.30
2019-03-23T20:06:22.487Z,43.30
2019-03-23T20:08:52.312Z,43.20
2019-03-23T20:11:22.196Z,43.20
2019-03-23T20:13:58.783Z,43.20
2019-03-23T20:16:23.547Z,43.10
2019-03-23T20:18:53.328Z,43.00
2019-03-23T20:21:23.116Z,42.90
2019-03-23T20:23:52.845Z,42.90
2019-03-23T20:26:23.648Z,42.80
2019-03-23T20:28:53.440Z,42.90
2019-03-23T20:31:23.237Z,42.80
2019-03-23T20:33:53.051Z,43.50
2019-03-23T20:36:22.796Z,42.80
2019-03-23T20:38:52.600Z,42.80
2019-03-23T20:41:22.547Z,43.80
2019-03-23T20:43:52.407Z,42.90
2019-03-23T20:46:23.537Z,42.90
2019-03-23T20:48:53.532Z,43.00
2019-03-23T20:51:23.465Z,42.90
2019-03-23T20:53:53.329Z,42.80
2019-03-23T20:56:23.149Z,42.80
2019-03-23T20:58:53.009Z,42.70
2019-03-23T21:01:22.786Z,42.80
2019-03-23T21:03:52.575Z,42.50
2019-03-23T21:06:22.388Z,42.50
2019-03-23T21:08:52.170Z,42.50
2019-03-23T21:11:21.854Z,42.50
2019-03-23T21:13:51.636Z,42.40
2019-03-23T21:16:21.483Z,42.40
2019-03-23T21:18:51.285Z,42.70
2019-03-23T21:21:21.033Z,42.20
2019-03-23T21:23:52.106Z,42.60
2019-03-23T21:26:22.088Z,42.20
2019-03-23T21:28:51.900Z,42.00
2019-03-23T21:31:21.592Z,41.80
2019-03-23T21:33:51.488Z,41.80
2019-03-23T21:36:21.400Z,42.10
2019-03-23T21:38:51.212Z,41.60
2019-03-23T21:41:20.966Z,41.50
2019-03-23T21:43:50.852Z,41.50
2019-03-23T21:46:20.535Z,41.50
2019-03-23T21:48:50.332Z,41.40
2019-03-23T21:51:20.140Z,41.30
2019-03-23T21:53:49.941Z,41.30
2019-03-23T21:56:19.693Z,41.10
2019-03-23T21:58:49.493Z,41.10
2019-03-23T22:01:19.175Z,41.10
2019-03-23T22:03:48.906Z,41.10
2019-03-23T22:06:18.731Z,40.90
2019-03-23T22:08:48.605Z,40.80
2019-03-23T22:11:18.352Z,40.70
2019-03-23T22:13:48.148Z,40.60
2019-03-23T22:16:17.894Z,40.50
2019-03-23T22:18:47.703Z,40.50
2019-03-23T22:21:17.572Z,40.40
2019-03-23T22:23:47.253Z,40.40
2019-03-23T22:26:18.156Z,40.40
2019-03-23T22:28:47.908Z,40.40
2019-03-23T22:31:17.791Z,40.30
2019-03-23T22:33:47.497Z,40.30
2019-03-23T22:36:17.295Z,40.30
2019-03-23T22:38:47.051Z,40.30
2019-03-23T22:41:16.851Z,40.30
2019-03-23T22:43:46.601Z,40.20
2019-03-23T22:46:16.413Z,40.20
2019-03-23T22:48:46.091Z,40.30
2019-03-23T22:51:15.825Z,40.20
2019-03-23T22:53:45.545Z,41.00
2019-03-23T22:56:15.346Z,40.20
2019-03-23T22:58:45.135Z,40.20
2019-03-23T23:01:14.833Z,40.20
2019-03-23T23:03:44.633Z,40.30
2019-03-23T23:06:14.421Z,40.30
2019-03-23T23:08:44.156Z,40.40
2019-03-23T23:11:13.964Z,40.30
2019-03-23T23:13:43.765Z,40.30
2019-03-23T23:16:13.642Z,40.20
2019-03-23T23:18:43.443Z,40.20
2019-03-23T23:21:13.196Z,40.20
2019-03-23T23:23:42.924Z,40.20
2019-03-23T23:26:12.740Z,40.20
2019-03-23T23:28:42.487Z,40.20
2019-03-23T23:31:12.305Z,40.20
2019-03-23T23:33:42.047Z,40.10
2019-03-23T23:36:11.843Z,40.10
2019-03-23T23:38:42.684Z,40.20
2019-03-23T23:41:12.489Z,40.20
2019-03-23T23:43:42.294Z,40.20
2019-03-23T23:46:12.045Z,40.20
2019-03-23T23:48:50.874Z,40.90
2019-03-23T23:51:13.162Z,40.20
2019-03-23T23:53:42.972Z,40.20
2019-03-23T23:56:12.673Z,40.20
2019-03-23T23:58:42.461Z,40.30
